sensor_id;sensor_type;location;lat;lon;timestamp;pressure;altitude;pressure_sealevel;temperature;humidity
78198;BME280;67472;51.554;7.812;2023-05-10T00:00:58;100552.28;;;13.44;100.00
78198;BME280;67472;51.554;7.812;2023-05-10T00:03:44;100551.69;;;13.50;100.00
78198;BME280;67472;51.554;7.812;2023-05-10T00:06:30;100554.13;;;13.43;100.00
78198;BME280;67472;51.554;7.812;2023-05-10T00:09:18;100545.16;;;13.44;100.00
78198;BME280;67472;51.554;7.812;2023-05-10T00:12:04;100552.16;;;13.45;100.00
78198;BME280;67472;51.554;7.812;2023-05-10T00:14:50;100541.88;;;13.33;100.00
78198;BME280;67472;51.554;7.812;2023-05-10T00:17:37;100538.63;;;13.39;100.00
78198;BME280;67472;51.554;7.812;2023-05-10T00:20:23;100534.19;;;13.39;100.00
78198;BME280;67472;51.554;7.812;2023-05-10T00:23:09;100529.16;;;13.36;100.00
78198;BME280;67472;51.554;7.812;2023-05-10T00:25:57;100525.75;;;13.26;100.00
78198;BME280;67472;51.554;7.812;2023-05-10T00:28:43;100518.75;;;13.25;100.00
78198;BME280;67472;51.554;7.812;2023-05-10T00:31:29;100512.63;;;13.25;100.00
78198;BME280;67472;51.554;7.812;2023-05-10T00:34:16;100511.19;;;13.30;100.00
78198;BME280;67472;51.554;7.812;2023-05-10T00:37:03;100504.19;;;13.29;100.00
78198;BME280;67472;51.554;7.812;2023-05-10T00:39:49;100495.44;;;13.29;100.00
78198;BME280;67472;51.554;7.812;2023-05-10T00:42:37;100493.75;;;13.28;100.00
78198;BME280;67472;51.554;7.812;2023-05-10T00:45:25;100491.88;;;13.38;100.00
78198;BME280;67472;51.554;7.812;2023-05-10T00:48:12;100489.66;;;13.33;100.00
78198;BME280;67472;51.554;7.812;2023-05-10T00:50:59;100491.00;;;13.20;100.00
78198;BME280;67472;51.554;7.812;2023-05-10T00:53:46;100479.69;;;13.18;100.00
78198;BME280;67472;51.554;7.812;2023-05-10T00:56:34;100478.88;;;13.17;100.00
78198;BME280;67472;51.554;7.812;2023-05-10T00:59:22;100480.63;;;13.09;100.00
78198;BME280;67472;51.554;7.812;2023-05-10T01:02:08;100482.13;;;13.11;100.00
78198;BME280;67472;51.554;7.812;2023-05-10T01:04:55;100484.78;;;13.11;100.00
78198;BME280;67472;51.554;7.812;2023-05-10T01:07:41;100482.97;;;13.12;100.00
78198;BME280;67472;51.554;7.812;2023-05-10T01:10:28;100486.56;;;13.20;100.00
78198;BME280;67472;51.554;7.812;2023-05-10T01:13:18;100485.91;;;13.09;100.00
78198;BME280;67472;51.554;7.812;2023-05-10T01:16:10;100486.28;;;13.14;100.00
78198;BME280;67472;51.554;7.812;2023-05-10T01:18:57;100489.63;;;13.16;100.00
78198;BME280;67472;51.554;7.812;2023-05-10T01:21:47;100487.53;;;13.19;100.00
78198;BME280;67472;51.554;7.812;2023-05-10T01:28:11;100482.69;;;13.05;100.00
78198;BME280;67472;51.554;7.812;2023-05-10T01:31:08;100490.09;;;13.11;100.00
78198;BME280;67472;51.554;7.812;2023-05-10T01:34:02;100494.13;;;13.06;100.00
78198;BME280;67472;51.554;7.812;2023-05-10T01:36:58;100506.38;;;13.07;100.00
78198;BME280;67472;51.554;7.812;2023-05-10T01:39:54;100514.50;;;13.05;100.00
78198;BME280;67472;51.554;7.812;2023-05-10T01:42:48;100507.94;;;13.09;100.00
78198;BME280;67472;51.554;7.812;2023-05-10T01:45:44;100516.75;;;13.00;100.00
78198;BME280;67472;51.554;7.812;2023-05-10T01:48:33;100516.75;;;13.00;100.00
78198;BME280;67472;51.554;7.812;2023-05-10T01:51:23;100518.72;;;12.98;100.00
78198;BME280;67472;51.554;7.812;2023-05-10T01:54:12;100526.13;;;12.94;100.00
78198;BME280;67472;51.554;7.812;2023-05-10T01:57:03;100534.06;;;12.94;100.00
78198;BME280;67472;51.554;7.812;2023-05-10T01:59:53;100533.25;;;12.94;100.00
78198;BME280;67472;51.554;7.812;2023-05-10T02:02:43;100537.31;;;12.88;100.00
78198;BME280;67472;51.554;7.812;2023-05-10T02:05:32;100542.47;;;12.90;100.00
78198;BME280;67472;51.554;7.812;2023-05-10T02:08:21;100546.81;;;12.81;100.00
78198;BME280;67472;51.554;7.812;2023-05-10T02:11:08;100550.16;;;12.83;100.00
78198;BME280;67472;51.554;7.812;2023-05-10T02:13:58;100551.69;;;12.86;100.00
78198;BME280;67472;51.554;7.812;2023-05-10T02:16:48;100562.25;;;12.95;100.00
78198;BME280;67472;51.554;7.812;2023-05-10T02:19:38;100569.94;;;12.98;100.00
78198;BME280;67472;51.554;7.812;2023-05-10T02:22:25;100569.63;;;13.01;100.00
78198;BME280;67472;51.554;7.812;2023-05-10T02:25:13;100565.31;;;13.00;100.00
78198;BME280;67472;51.554;7.812;2023-05-10T02:28:02;100564.50;;;13.00;100.00
78198;BME280;67472;51.554;7.812;2023-05-10T02:30:51;100568.25;;;12.97;100.00
78198;BME280;67472;51.554;7.812;2023-05-10T02:33:38;100568.13;;;12.99;100.00
78198;BME280;67472;51.554;7.812;2023-05-10T02:36:27;100572.97;;;13.03;100.00
78198;BME280;67472;51.554;7.812;2023-05-10T02:39:14;100573.53;;;13.07;100.00
78198;BME280;67472;51.554;7.812;2023-05-10T02:42:03;100575.34;;;13.16;100.00
78198;BME280;67472;51.554;7.812;2023-05-10T02:44:53;100570.19;;;13.05;100.00
78198;BME280;67472;51.554;7.812;2023-05-10T02:47:41;100565.59;;;12.97;100.00
78198;BME280;67472;51.554;7.812;2023-05-10T02:50:30;100579.69;;;12.98;100.00
78198;BME280;67472;51.554;7.812;2023-05-10T02:53:22;100590.72;;;13.03;100.00
78198;BME280;67472;51.554;7.812;2023-05-10T02:56:15;100591.13;;;12.98;100.00
78198;BME280;67472;51.554;7.812;2023-05-10T02:59:07;100592.09;;;12.97;100.00
78198;BME280;67472;51.554;7.812;2023-05-10T03:01:53;100596.31;;;12.90;100.00
78198;BME280;67472;51.554;7.812;2023-05-10T03:04:40;100600.50;;;12.93;100.00
78198;BME280;67472;51.554;7.812;2023-05-10T03:07:26;100595.22;;;12.83;100.00
78198;BME280;67472;51.554;7.812;2023-05-10T03:10:13;100602.66;;;12.70;100.00
78198;BME280;67472;51.554;7.812;2023-05-10T03:13:09;100604.91;;;12.65;100.00
78198;BME280;67472;51.554;7.812;2023-05-10T03:16:06;100611.28;;;12.63;100.00
78198;BME280;67472;51.554;7.812;2023-05-10T03:18:56;100607.69;;;12.64;100.00
78198;BME280;67472;51.554;7.812;2023-05-10T03:21:50;100609.66;;;12.62;100.00
78198;BME280;67472;51.554;7.812;2023-05-10T03:24:39;100605.59;;;12.58;100.00
78198;BME280;67472;51.554;7.812;2023-05-10T03:27:27;100610.47;;;12.62;100.00
78198;BME280;67472;51.554;7.812;2023-05-10T03:30:16;100619.25;;;12.63;100.00
78198;BME280;67472;51.554;7.812;2023-05-10T03:33:05;100612.84;;;12.65;100.00
78198;BME280;67472;51.554;7.812;2023-05-10T03:35:55;100608.13;;;12.59;100.00
78198;BME280;67472;51.554;7.812;2023-05-10T03:38:41;100611.72;;;12.58;100.00
78198;BME280;67472;51.554;7.812;2023-05-10T03:41:27;100604.75;;;12.57;100.00
78198;BME280;67472;51.554;7.812;2023-05-10T03:44:14;100609.75;;;12.60;100.00
78198;BME280;67472;51.554;7.812;2023-05-10T03:47:00;100594.19;;;12.48;100.00
78198;BME280;67472;51.554;7.812;2023-05-10T03:49:48;100597.53;;;12.50;100.00
78198;BME280;67472;51.554;7.812;2023-05-10T03:52:34;100609.63;;;12.42;100.00
78198;BME280;67472;51.554;7.812;2023-05-10T03:55:21;100606.03;;;12.43;100.00
78198;BME280;67472;51.554;7.812;2023-05-10T03:58:10;100612.16;;;12.54;100.00
78198;BME280;67472;51.554;7.812;2023-05-10T04:00:57;100608.41;;;12.46;100.00
78198;BME280;67472;51.554;7.812;2023-05-10T04:03:43;100608.69;;;12.43;100.00
78198;BME280;67472;51.554;7.812;2023-05-10T04:06:32;100615.38;;;12.48;100.00
78198;BME280;67472;51.554;7.812;2023-05-10T04:09:18;100606.19;;;12.42;100.00
78198;BME280;67472;51.554;7.812;2023-05-10T04:12:05;100601.41;;;12.45;100.00
78198;BME280;67472;51.554;7.812;2023-05-10T04:14:51;100589.00;;;12.46;100.00
78198;BME280;67472;51.554;7.812;2023-05-10T04:17:38;100591.09;;;12.42;100.00
78198;BME280;67472;51.554;7.812;2023-05-10T04:20:24;100594.31;;;12.36;100.00
78198;BME280;67472;51.554;7.812;2023-05-10T04:23:12;100594.59;;;12.53;100.00
78198;BME280;67472;51.554;7.812;2023-05-10T04:26:00;100584.13;;;12.51;100.00
78198;BME280;67472;51.554;7.812;2023-05-10T04:28:46;100576.03;;;12.53;100.00
78198;BME280;67472;51.554;7.812;2023-05-10T04:31:32;100582.72;;;12.57;100.00
78198;BME280;67472;51.554;7.812;2023-05-10T04:34:21;100567.53;;;12.49;100.00
78198;BME280;67472;51.554;7.812;2023-05-10T04:37:07;100571.03;;;12.50;100.00
78198;BME280;67472;51.554;7.812;2023-05-10T04:39:55;100566.25;;;12.63;100.00
78198;BME280;67472;51.554;7.812;2023-05-10T04:42:42;100574.19;;;12.72;100.00
78198;BME280;67472;51.554;7.812;2023-05-10T04:45:29;100567.75;;;12.75;100.00
78198;BME280;67472;51.554;7.812;2023-05-10T04:48:16;100566.78;;;12.76;100.00
78198;BME280;67472;51.554;7.812;2023-05-10T04:51:02;100564.69;;;12.79;100.00
78198;BME280;67472;51.554;7.812;2023-05-10T04:53:49;100555.91;;;12.79;100.00
78198;BME280;67472;51.554;7.812;2023-05-10T04:56:37;100558.94;;;12.84;100.00
78198;BME280;67472;51.554;7.812;2023-05-10T04:59:23;100567.72;;;12.94;100.00
78198;BME280;67472;51.554;7.812;2023-05-10T05:02:09;100565.75;;;12.96;100.00
78198;BME280;67472;51.554;7.812;2023-05-10T05:04:56;100562.81;;;13.09;100.00
78198;BME280;67472;51.554;7.812;2023-05-10T05:07:43;100564.72;;;13.16;100.00
78198;BME280;67472;51.554;7.812;2023-05-10T05:10:29;100560.00;;;13.10;100.00
78198;BME280;67472;51.554;7.812;2023-05-10T05:13:17;100561.09;;;13.17;100.00
78198;BME280;67472;51.554;7.812;2023-05-10T05:16:04;100567.47;;;13.24;100.00
78198;BME280;67472;51.554;7.812;2023-05-10T05:18:50;100558.84;;;13.22;100.00
78198;BME280;67472;51.554;7.812;2023-05-10T05:21:37;100554.09;;;13.26;100.00
78198;BME280;67472;51.554;7.812;2023-05-10T05:24:23;100542.53;;;13.17;100.00
78198;BME280;67472;51.554;7.812;2023-05-10T05:27:09;100542.25;;;13.20;100.00
78198;BME280;67472;51.554;7.812;2023-05-10T05:29:56;100531.22;;;13.15;100.00
78198;BME280;67472;51.554;7.812;2023-05-10T05:32:43;100523.13;;;13.07;100.00
78198;BME280;67472;51.554;7.812;2023-05-10T05:35:29;100529.56;;;13.04;100.00
78198;BME280;67472;51.554;7.812;2023-05-10T05:38:15;100530.53;;;13.03;100.00
78198;BME280;67472;51.554;7.812;2023-05-10T05:41:02;100535.84;;;13.03;100.00
78198;BME280;67472;51.554;7.812;2023-05-10T05:43:48;100539.91;;;12.98;100.00
78198;BME280;67472;51.554;7.812;2023-05-10T05:46:36;100539.25;;;12.96;100.00
78198;BME280;67472;51.554;7.812;2023-05-10T05:49:22;100537.44;;;12.96;100.00
78198;BME280;67472;51.554;7.812;2023-05-10T05:52:09;100537.69;;;13.03;100.00
78198;BME280;67472;51.554;7.812;2023-05-10T05:54:54;100531.50;;;13.12;100.00
78198;BME280;67472;51.554;7.812;2023-05-10T05:57:41;100535.72;;;13.15;100.00
78198;BME280;67472;51.554;7.812;2023-05-10T06:00:27;100535.09;;;13.21;100.00
78198;BME280;67472;51.554;7.812;2023-05-10T06:03:18;100541.34;;;13.29;100.00
78198;BME280;67472;51.554;7.812;2023-05-10T06:06:04;100538.94;;;13.36;100.00
78198;BME280;67472;51.554;7.812;2023-05-10T06:08:51;100543.34;;;13.45;100.00
78198;BME280;67472;51.554;7.812;2023-05-10T06:11:37;100537.16;;;13.54;100.00
78198;BME280;67472;51.554;7.812;2023-05-10T06:14:23;100535.22;;;13.74;100.00
78198;BME280;67472;51.554;7.812;2023-05-10T06:17:10;100536.88;;;13.75;100.00
78198;BME280;67472;51.554;7.812;2023-05-10T06:19:57;100521.94;;;13.74;100.00
78198;BME280;67472;51.554;7.812;2023-05-10T06:22:43;100506.91;;;13.82;100.00
78198;BME280;67472;51.554;7.812;2023-05-10T06:25:29;100503.59;;;13.80;100.00
78198;BME280;67472;51.554;7.812;2023-05-10T06:28:15;100509.94;;;13.87;100.00
78198;BME280;67472;51.554;7.812;2023-05-10T06:31:02;100507.94;;;13.81;100.00
78198;BME280;67472;51.554;7.812;2023-05-10T06:33:48;100507.22;;;13.79;100.00
78198;BME280;67472;51.554;7.812;2023-05-10T06:36:37;100501.47;;;13.84;100.00
78198;BME280;67472;51.554;7.812;2023-05-10T06:39:23;100501.53;;;13.92;100.00
78198;BME280;67472;51.554;7.812;2023-05-10T06:42:09;100493.09;;;13.79;100.00
78198;BME280;67472;51.554;7.812;2023-05-10T06:44:55;100490.63;;;13.77;100.00
78198;BME280;67472;51.554;7.812;2023-05-10T06:47:41;100490.56;;;13.87;100.00
78198;BME280;67472;51.554;7.812;2023-05-10T06:50:28;100492.72;;;13.74;100.00
78198;BME280;67472;51.554;7.812;2023-05-10T06:53:16;100489.84;;;13.85;100.00
78198;BME280;67472;51.554;7.812;2023-05-10T06:56:03;100492.66;;;14.01;100.00
78198;BME280;67472;51.554;7.812;2023-05-10T06:58:49;100493.97;;;14.23;100.00
78198;BME280;67472;51.554;7.812;2023-05-10T07:01:35;100491.00;;;14.26;100.00
78198;BME280;67472;51.554;7.812;2023-05-10T07:04:22;100479.78;;;14.32;100.00
78198;BME280;67472;51.554;7.812;2023-05-10T07:07:08;100475.06;;;14.43;100.00
78198;BME280;67472;51.554;7.812;2023-05-10T07:09:56;100463.41;;;14.36;100.00
78198;BME280;67472;51.554;7.812;2023-05-10T07:12:42;100461.41;;;14.38;100.00
78198;BME280;67472;51.554;7.812;2023-05-10T07:15:29;100461.63;;;14.45;100.00
78198;BME280;67472;51.554;7.812;2023-05-10T07:18:15;100464.22;;;14.62;100.00
78198;BME280;67472;51.554;7.812;2023-05-10T07:21:02;100473.31;;;14.86;100.00
78198;BME280;67472;51.554;7.812;2023-05-10T07:23:48;100468.78;;;14.78;100.00
78198;BME280;67472;51.554;7.812;2023-05-10T07:26:36;100456.56;;;14.59;100.00
78198;BME280;67472;51.554;7.812;2023-05-10T07:29:22;100458.53;;;14.57;100.00
78198;BME280;67472;51.554;7.812;2023-05-10T07:32:08;100452.44;;;14.65;100.00
78198;BME280;67472;51.554;7.812;2023-05-10T07:34:55;100452.88;;;14.52;100.00
78198;BME280;67472;51.554;7.812;2023-05-10T07:37:41;100445.06;;;14.51;100.00
78198;BME280;67472;51.554;7.812;2023-05-10T07:40:28;100456.03;;;14.56;100.00
78198;BME280;67472;51.554;7.812;2023-05-10T07:43:16;100455.78;;;14.75;100.00
78198;BME280;67472;51.554;7.812;2023-05-10T07:46:02;100466.88;;;14.96;100.00
78198;BME280;67472;51.554;7.812;2023-05-10T07:48:48;100454.72;;;14.86;100.00
78198;BME280;67472;51.554;7.812;2023-05-10T07:51:34;100445.47;;;15.06;100.00
78198;BME280;67472;51.554;7.812;2023-05-10T07:54:20;100443.06;;;15.37;100.00
78198;BME280;67472;51.554;7.812;2023-05-10T07:57:07;100432.25;;;15.46;100.00
78198;BME280;67472;51.554;7.812;2023-05-10T07:59:54;100410.00;;;15.63;100.00
78198;BME280;67472;51.554;7.812;2023-05-10T08:02:40;100408.66;;;15.92;100.00
78198;BME280;67472;51.554;7.812;2023-05-10T08:05:27;100382.34;;;15.97;100.00
78198;BME280;67472;51.554;7.812;2023-05-10T08:08:13;100365.06;;;15.85;100.00
78198;BME280;67472;51.554;7.812;2023-05-10T08:10:59;100362.31;;;16.17;100.00
78198;BME280;67472;51.554;7.812;2023-05-10T08:13:45;100352.69;;;16.16;100.00
78198;BME280;67472;51.554;7.812;2023-05-10T08:16:33;100330.56;;;16.07;100.00
78198;BME280;67472;51.554;7.812;2023-05-10T08:19:20;100307.16;;;15.78;100.00
78198;BME280;67472;51.554;7.812;2023-05-10T08:22:07;100291.72;;;15.50;100.00
78198;BME280;67472;51.554;7.812;2023-05-10T08:24:53;100283.38;;;15.53;100.00
78198;BME280;67472;51.554;7.812;2023-05-10T08:27:40;100283.03;;;15.72;100.00
78198;BME280;67472;51.554;7.812;2023-05-10T08:30:26;100272.91;;;16.14;100.00
78198;BME280;67472;51.554;7.812;2023-05-10T08:33:14;100269.59;;;16.12;100.00
78198;BME280;67472;51.554;7.812;2023-05-10T08:36:00;100259.53;;;16.30;100.00
78198;BME280;67472;51.554;7.812;2023-05-10T08:38:46;100243.19;;;16.25;100.00
78198;BME280;67472;51.554;7.812;2023-05-10T08:41:33;100241.22;;;16.58;100.00
78198;BME280;67472;51.554;7.812;2023-05-10T08:44:20;100229.41;;;16.53;100.00
78198;BME280;67472;51.554;7.812;2023-05-10T08:47:06;100229.91;;;16.79;100.00
78198;BME280;67472;51.554;7.812;2023-05-10T08:49:55;100229.69;;;16.88;100.00
78198;BME280;67472;51.554;7.812;2023-05-10T08:52:44;100236.72;;;16.81;100.00
78198;BME280;67472;51.554;7.812;2023-05-10T08:55:32;100228.91;;;16.49;100.00
78198;BME280;67472;51.554;7.812;2023-05-10T08:58:22;100220.25;;;16.47;100.00
78198;BME280;67472;51.554;7.812;2023-05-10T09:01:08;100235.81;;;16.35;100.00
78198;BME280;67472;51.554;7.812;2023-05-10T09:03:56;100236.91;;;16.18;100.00
78198;BME280;67472;51.554;7.812;2023-05-10T09:06:43;100252.75;;;16.12;100.00
78198;BME280;67472;51.554;7.812;2023-05-10T09:09:29;100262.63;;;16.03;100.00
78198;BME280;67472;51.554;7.812;2023-05-10T09:12:17;100261.09;;;16.09;100.00
78198;BME280;67472;51.554;7.812;2023-05-10T09:15:05;100251.91;;;16.11;100.00
78198;BME280;67472;51.554;7.812;2023-05-10T09:17:51;100256.16;;;16.36;100.00
78198;BME280;67472;51.554;7.812;2023-05-10T09:20:38;100260.88;;;16.57;100.00
78198;BME280;67472;51.554;7.812;2023-05-10T09:23:26;100250.97;;;16.74;100.00
78198;BME280;67472;51.554;7.812;2023-05-10T09:26:22;100240.66;;;16.93;100.00
78198;BME280;67472;51.554;7.812;2023-05-10T09:29:08;100235.16;;;17.70;100.00
78198;BME280;67472;51.554;7.812;2023-05-10T09:31:54;100228.97;;;18.13;100.00
78198;BME280;67472;51.554;7.812;2023-05-10T09:34:40;100189.19;;;18.25;100.00
78198;BME280;67472;51.554;7.812;2023-05-10T09:37:29;100178.13;;;18.85;100.00
78198;BME280;67472;51.554;7.812;2023-05-10T09:40:18;100158.19;;;18.66;100.00
78198;BME280;67472;51.554;7.812;2023-05-10T09:43:06;100156.47;;;18.23;100.00
78198;BME280;67472;51.554;7.812;2023-05-10T09:45:52;100169.59;;;17.44;100.00
78198;BME280;67472;51.554;7.812;2023-05-10T09:48:42;100179.44;;;17.15;100.00
78198;BME280;67472;51.554;7.812;2023-05-10T09:51:28;100182.88;;;16.86;100.00
78198;BME280;67472;51.554;7.812;2023-05-10T09:54:15;100199.00;;;17.07;100.00
78198;BME280;67472;51.554;7.812;2023-05-10T09:57:03;100207.06;;;17.36;100.00
78198;BME280;67472;51.554;7.812;2023-05-10T09:59:50;100185.00;;;17.42;100.00
78198;BME280;67472;51.554;7.812;2023-05-10T10:02:38;100183.81;;;17.60;100.00
78198;BME280;67472;51.554;7.812;2023-05-10T10:05:28;100183.63;;;17.46;100.00
78198;BME280;67472;51.554;7.812;2023-05-10T10:08:15;100194.94;;;17.48;100.00
78198;BME280;67472;51.554;7.812;2023-05-10T10:11:01;100196.22;;;17.38;100.00
78198;BME280;67472;51.554;7.812;2023-05-10T10:13:49;100203.13;;;17.32;100.00
78198;BME280;67472;51.554;7.812;2023-05-10T10:16:36;100203.66;;;17.28;100.00
78198;BME280;67472;51.554;7.812;2023-05-10T10:19:22;100208.91;;;17.36;100.00
78198;BME280;67472;51.554;7.812;2023-05-10T10:22:08;100205.06;;;17.53;100.00
78198;BME280;67472;51.554;7.812;2023-05-10T10:24:57;100202.72;;;17.87;100.00
78198;BME280;67472;51.554;7.812;2023-05-10T10:27:48;100186.22;;;18.34;100.00
78198;BME280;67472;51.554;7.812;2023-05-10T10:30:46;100177.66;;;18.81;100.00
78198;BME280;67472;51.554;7.812;2023-05-10T10:33:42;100156.25;;;18.81;100.00
78198;BME280;67472;51.554;7.812;2023-05-10T10:36:40;100149.44;;;18.79;100.00
78198;BME280;67472;51.554;7.812;2023-05-10T10:39:26;100149.00;;;19.52;100.00
78198;BME280;67472;51.554;7.812;2023-05-10T10:42:13;100132.69;;;19.53;100.00
78198;BME280;67472;51.554;7.812;2023-05-10T10:45:11;100139.28;;;19.44;100.00
78198;BME280;67472;51.554;7.812;2023-05-10T10:48:23;100120.97;;;19.54;100.00
78198;BME280;67472;51.554;7.812;2023-05-10T10:51:09;100134.44;;;19.67;100.00
78198;BME280;67472;51.554;7.812;2023-05-10T10:54:08;100118.91;;;19.56;100.00
78198;BME280;67472;51.554;7.812;2023-05-10T10:57:13;100121.38;;;19.51;100.00
78198;BME280;67472;51.554;7.812;2023-05-10T11:00:19;100117.28;;;19.62;100.00
78198;BME280;67472;51.554;7.812;2023-05-10T11:03:06;100108.66;;;19.32;100.00
78198;BME280;67472;51.554;7.812;2023-05-10T11:05:59;100122.72;;;19.06;100.00
78198;BME280;67472;51.554;7.812;2023-05-10T11:08:47;100131.13;;;19.03;100.00
78198;BME280;67472;51.554;7.812;2023-05-10T11:11:34;100132.50;;;19.21;100.00
78198;BME280;67472;51.554;7.812;2023-05-10T11:14:21;100143.28;;;19.61;100.00
78198;BME280;67472;51.554;7.812;2023-05-10T11:17:24;100119.91;;;19.49;100.00
78198;BME280;67472;51.554;7.812;2023-05-10T11:20:14;100125.47;;;19.47;100.00
78198;BME280;67472;51.554;7.812;2023-05-10T11:23:12;100130.81;;;19.82;100.00
78198;BME280;67472;51.554;7.812;2023-05-10T11:26:00;100116.84;;;19.99;100.00
78198;BME280;67472;51.554;7.812;2023-05-10T11:28:48;100115.94;;;20.46;100.00
78198;BME280;67472;51.554;7.812;2023-05-10T11:31:34;100138.31;;;20.12;100.00
78198;BME280;67472;51.554;7.812;2023-05-10T11:34:25;100133.88;;;19.79;100.00
78198;BME280;67472;51.554;7.812;2023-05-10T11:37:11;100148.00;;;19.32;100.00
78198;BME280;67472;51.554;7.812;2023-05-10T11:40:00;100143.38;;;19.19;100.00
78198;BME280;67472;51.554;7.812;2023-05-10T11:42:46;100134.50;;;19.12;100.00
78198;BME280;67472;51.554;7.812;2023-05-10T11:45:33;100132.03;;;19.79;100.00
78198;BME280;67472;51.554;7.812;2023-05-10T11:48:19;100135.22;;;20.02;100.00
78198;BME280;67472;51.554;7.812;2023-05-10T11:51:09;100124.19;;;20.45;100.00
78198;BME280;67472;51.554;7.812;2023-05-10T11:53:56;100140.13;;;20.99;100.00
78198;BME280;67472;51.554;7.812;2023-05-10T11:56:44;100118.84;;;20.91;100.00
78198;BME280;67472;51.554;7.812;2023-05-10T11:59:30;100122.78;;;20.62;100.00
78198;BME280;67472;51.554;7.812;2023-05-10T12:02:16;100134.75;;;20.59;100.00
78198;BME280;67472;51.554;7.812;2023-05-10T12:05:03;100142.84;;;20.12;100.00
78198;BME280;67472;51.554;7.812;2023-05-10T12:07:51;100159.53;;;19.60;100.00
78198;BME280;67472;51.554;7.812;2023-05-10T12:10:36;100170.38;;;19.45;100.00
78198;BME280;67472;51.554;7.812;2023-05-10T12:13:24;100186.63;;;19.16;100.00
78198;BME280;67472;51.554;7.812;2023-05-10T12:16:14;100188.69;;;18.93;100.00
78198;BME280;67472;51.554;7.812;2023-05-10T12:19:01;100178.81;;;18.72;100.00
78198;BME280;67472;51.554;7.812;2023-05-10T12:21:47;100191.56;;;18.70;100.00
78198;BME280;67472;51.554;7.812;2023-05-10T12:24:34;100168.53;;;18.33;100.00
78198;BME280;67472;51.554;7.812;2023-05-10T12:27:21;100172.63;;;18.15;100.00
78198;BME280;67472;51.554;7.812;2023-05-10T12:30:09;100199.34;;;18.15;100.00
78198;BME280;67472;51.554;7.812;2023-05-10T12:33:00;100187.50;;;18.38;100.00
78198;BME280;67472;51.554;7.812;2023-05-10T12:35:47;100189.66;;;18.28;100.00
78198;BME280;67472;51.554;7.812;2023-05-10T12:38:36;100187.81;;;18.14;100.00
78198;BME280;67472;51.554;7.812;2023-05-10T12:41:22;100188.72;;;18.36;100.00
78198;BME280;67472;51.554;7.812;2023-05-10T12:44:09;100191.53;;;18.49;100.00
78198;BME280;67472;51.554;7.812;2023-05-10T12:46:57;100186.19;;;18.49;100.00
78198;BME280;67472;51.554;7.812;2023-05-10T12:49:43;100186.28;;;18.55;100.00
78198;BME280;67472;51.554;7.812;2023-05-10T12:52:30;100183.81;;;18.54;100.00
78198;BME280;67472;51.554;7.812;2023-05-10T12:55:17;100184.53;;;18.48;100.00
78198;BME280;67472;51.554;7.812;2023-05-10T12:58:03;100196.16;;;18.40;100.00
78198;BME280;67472;51.554;7.812;2023-05-10T13:00:50;100188.59;;;18.44;100.00
78198;BME280;67472;51.554;7.812;2023-05-10T13:03:41;100197.94;;;18.69;100.00
78198;BME280;67472;51.554;7.812;2023-05-10T13:06:28;100191.19;;;18.94;100.00
78198;BME280;67472;51.554;7.812;2023-05-10T13:09:14;100208.53;;;19.26;100.00
78198;BME280;67472;51.554;7.812;2023-05-10T13:12:01;100187.78;;;19.07;100.00
78198;BME280;67472;51.554;7.812;2023-05-10T13:14:48;100202.00;;;19.07;100.00
78198;BME280;67472;51.554;7.812;2023-05-10T13:17:35;100186.53;;;19.03;100.00
78198;BME280;67472;51.554;7.812;2023-05-10T13:20:25;100189.00;;;19.04;100.00
78198;BME280;67472;51.554;7.812;2023-05-10T13:23:11;100196.94;;;19.19;100.00
78198;BME280;67472;51.554;7.812;2023-05-10T13:25:58;100194.41;;;19.11;100.00
78198;BME280;67472;51.554;7.812;2023-05-10T13:28:43;100197.69;;;18.85;100.00
78198;BME280;67472;51.554;7.812;2023-05-10T13:31:30;100211.00;;;19.00;100.00
78198;BME280;67472;51.554;7.812;2023-05-10T13:34:17;100213.03;;;18.77;100.00
78198;BME280;67472;51.554;7.812;2023-05-10T13:37:06;100214.88;;;18.76;100.00
78198;BME280;67472;51.554;7.812;2023-05-10T13:39:52;100202.25;;;18.70;100.00
78198;BME280;67472;51.554;7.812;2023-05-10T13:42:38;100204.63;;;18.80;100.00
78198;BME280;67472;51.554;7.812;2023-05-10T13:45:24;100212.72;;;18.86;100.00
78198;BME280;67472;51.554;7.812;2023-05-10T13:48:10;100211.91;;;18.86;100.00
78198;BME280;67472;51.554;7.812;2023-05-10T13:50:57;100220.16;;;19.12;100.00
78198;BME280;67472;51.554;7.812;2023-05-10T13:53:44;100208.47;;;19.19;100.00
78198;BME280;67472;51.554;7.812;2023-05-10T13:56:36;100212.91;;;19.34;100.00
78198;BME280;67472;51.554;7.812;2023-05-10T13:59:22;100205.75;;;19.68;100.00
78198;BME280;67472;51.554;7.812;2023-05-10T14:02:08;100214.44;;;19.70;100.00
78198;BME280;67472;51.554;7.812;2023-05-10T14:04:55;100210.56;;;19.80;100.00
78198;BME280;67472;51.554;7.812;2023-05-10T14:07:41;100204.31;;;19.66;100.00
78198;BME280;67472;51.554;7.812;2023-05-10T14:10:29;100204.88;;;19.96;100.00
78198;BME280;67472;51.554;7.812;2023-05-10T14:13:15;100202.09;;;20.17;100.00
78198;BME280;67472;51.554;7.812;2023-05-10T14:16:02;100191.16;;;20.18;100.00
78198;BME280;67472;51.554;7.812;2023-05-10T14:18:48;100202.47;;;20.07;100.00
78198;BME280;67472;51.554;7.812;2023-05-10T14:21:34;100197.59;;;19.49;100.00
78198;BME280;67472;51.554;7.812;2023-05-10T14:24:21;100203.19;;;19.54;100.00
78198;BME280;67472;51.554;7.812;2023-05-10T14:27:08;100207.41;;;20.04;100.00
78198;BME280;67472;51.554;7.812;2023-05-10T14:29:56;100192.31;;;19.96;100.00